createdAt,value
2017-07-26T00:01:18.650Z,10.40
2017-07-26T00:03:46.987Z,9.53
2017-07-26T00:06:14.536Z,11.70
2017-07-26T00:08:42.538Z,11.13
2017-07-26T00:11:10.085Z,10.23
2017-07-26T00:13:37.686Z,11.27
2017-07-26T00:16:06.337Z,11.93
2017-07-26T00:18:33.905Z,10.63
2017-07-26T00:21:01.443Z,10.50
2017-07-26T00:23:29.338Z,11.60
2017-07-26T00:25:56.881Z,12.00
2017-07-26T00:28:24.451Z,11.50
2017-07-26T00:30:52.311Z,11.70
2017-07-26T00:33:19.849Z,12.00
2017-07-26T00:35:47.395Z,12.43
2017-07-26T00:38:15.209Z,12.73
2017-07-26T00:40:42.753Z,13.77
2017-07-26T00:43:10.286Z,11.80
2017-07-26T00:45:38.205Z,12.87
2017-07-26T00:48:05.736Z,9.37
2017-07-26T00:50:33.269Z,9.67
2017-07-26T00:53:01.175Z,9.40
2017-07-26T00:55:28.711Z,9.03
2017-07-26T00:57:56.275Z,10.23
2017-07-26T01:00:24.165Z,9.50
2017-07-26T01:02:51.707Z,7.90
2017-07-26T01:05:19.223Z,8.70
2017-07-26T01:07:47.051Z,7.53
2017-07-26T01:10:14.578Z,6.80
2017-07-26T01:12:42.107Z,6.53
2017-07-26T01:15:09.973Z,6.73
2017-07-26T01:17:37.545Z,6.70
2017-07-26T01:20:05.856Z,6.63
2017-07-26T01:22:33.838Z,6.50
2017-07-26T01:25:01.366Z,6.57
2017-07-26T01:27:29.674Z,6.57
2017-07-26T01:29:57.576Z,4.70
2017-07-26T01:32:25.110Z,6.27
2017-07-26T01:34:52.632Z,6.60
2017-07-26T01:37:20.538Z,6.20
2017-07-26T01:39:48.069Z,6.30
2017-07-26T01:42:15.634Z,6.50
2017-07-26T01:44:43.546Z,5.60
2017-07-26T01:47:11.067Z,5.77
2017-07-26T01:49:38.614Z,6.77
2017-07-26T01:52:06.520Z,4.97
2017-07-26T01:54:34.051Z,5.13
2017-07-26T01:57:01.580Z,5.23
2017-07-26T01:59:29.507Z,5.80
2017-07-26T02:01:57.057Z,5.90
2017-07-26T02:04:24.591Z,5.43
2017-07-26T02:06:52.386Z,5.33
2017-07-26T02:09:19.925Z,5.47
2017-07-26T02:11:47.470Z,5.40
2017-07-26T02:14:16.088Z,5.40
2017-07-26T02:16:43.612Z,5.00
2017-07-26T02:19:11.161Z,5.87
2017-07-26T02:21:38.996Z,5.40
2017-07-26T02:24:06.541Z,5.00
2017-07-26T02:26:34.096Z,5.00
2017-07-26T02:29:01.890Z,4.90
2017-07-26T02:31:29.439Z,4.60
2017-07-26T02:33:56.987Z,4.40
2017-07-26T02:36:24.873Z,4.10
2017-07-26T02:38:52.426Z,4.53
2017-07-26T02:41:19.973Z,4.47
2017-07-26T02:43:47.806Z,3.97
2017-07-26T02:46:15.353Z,3.97
2017-07-26T02:48:42.884Z,3.33
2017-07-26T02:51:10.745Z,3.30
2017-07-26T02:53:38.262Z,3.10
2017-07-26T02:56:05.803Z,2.73
2017-07-26T02:58:33.626Z,2.67
2017-07-26T03:01:01.140Z,2.60
2017-07-26T03:03:28.685Z,2.50
2017-07-26T03:05:56.653Z,2.60
2017-07-26T03:08:24.978Z,2.70
2017-07-26T03:10:52.518Z,2.53
2017-07-26T03:13:20.451Z,2.40
2017-07-26T03:15:47.980Z,2.80
2017-07-26T03:18:15.521Z,2.57
2017-07-26T03:20:43.414Z,2.60
2017-07-26T03:23:10.959Z,2.73
2017-07-26T03:25:38.490Z,2.23
2017-07-26T03:28:06.394Z,2.90
2017-07-26T03:30:34.709Z,2.50
2017-07-26T03:33:02.262Z,2.70
2017-07-26T03:35:30.108Z,2.70
2017-07-26T03:37:57.643Z,2.40
2017-07-26T03:40:25.182Z,2.77
2017-07-26T03:42:56.126Z,2.40
2017-07-26T03:45:23.663Z,3.00
2017-07-26T03:47:51.250Z,2.40
2017-07-26T03:50:18.805Z,2.53
2017-07-26T03:52:47.109Z,3.63
2017-07-26T03:55:14.667Z,2.37
2017-07-26T03:57:42.241Z,2.60
2017-07-26T04:00:09.796Z,2.67
2017-07-26T04:02:37.322Z,2.87
2017-07-26T04:05:04.916Z,2.00
2017-07-26T04:07:32.471Z,2.53
2017-07-26T04:10:00.030Z,2.60
2017-07-26T04:12:27.589Z,2.60
2017-07-26T04:14:55.176Z,3.20
2017-07-26T04:17:22.712Z,2.00
2017-07-26T04:19:50.594Z,3.07
2017-07-26T04:22:18.145Z,2.23
2017-07-26T04:24:45.717Z,2.10
2017-07-26T04:27:13.547Z,3.73
2017-07-26T04:29:41.084Z,2.27
2017-07-26T04:32:09.400Z,3.93
2017-07-26T04:34:36.969Z,2.20
2017-07-26T04:37:04.527Z,2.70
2017-07-26T04:39:32.092Z,2.50
2017-07-26T04:41:59.964Z,2.37
2017-07-26T04:44:27.497Z,2.20
2017-07-26T04:46:55.037Z,2.60
2017-07-26T04:49:22.988Z,3.50
2017-07-26T04:51:50.522Z,2.83
2017-07-26T04:54:18.049Z,2.40
2017-07-26T04:56:45.947Z,2.40
2017-07-26T04:59:13.476Z,2.57
2017-07-26T05:01:41.000Z,2.50
2017-07-26T05:04:09.345Z,2.67
2017-07-26T05:06:37.525Z,2.20
2017-07-26T05:09:05.040Z,2.73
2017-07-26T05:11:32.625Z,2.13
2017-07-26T05:14:00.171Z,2.50
2017-07-26T05:16:27.722Z,2.40
2017-07-26T05:18:55.517Z,2.30
2017-07-26T05:21:23.047Z,2.10
2017-07-26T05:23:50.577Z,2.00
2017-07-26T05:26:18.620Z,2.40
2017-07-26T05:28:46.167Z,2.10
2017-07-26T05:31:13.723Z,2.50
2017-07-26T05:33:41.603Z,2.20
2017-07-26T05:36:09.123Z,1.90
2017-07-26T05:38:36.670Z,1.70
2017-07-26T05:41:04.603Z,2.50
2017-07-26T05:43:32.173Z,2.10
2017-07-26T05:45:59.681Z,1.80
2017-07-26T05:48:27.525Z,2.10
2017-07-26T05:50:55.099Z,1.53
2017-07-26T05:53:22.641Z,1.57
2017-07-26T05:55:50.599Z,1.70
2017-07-26T05:58:18.142Z,1.83
2017-07-26T06:00:45.679Z,1.77
2017-07-26T06:03:13.560Z,1.83
2017-07-26T06:05:41.081Z,1.70
2017-07-26T06:08:08.619Z,1.73
2017-07-26T06:10:37.273Z,1.80
2017-07-26T06:13:04.795Z,1.57
2017-07-26T06:15:32.317Z,2.03
2017-07-26T06:18:00.639Z,2.07
2017-07-26T06:20:28.212Z,1.77
2017-07-26T06:22:55.737Z,1.50
2017-07-26T06:25:23.509Z,1.70
2017-07-26T06:27:51.086Z,1.60
2017-07-26T06:30:18.663Z,2.00
2017-07-26T06:32:46.638Z,1.53
2017-07-26T06:35:14.173Z,2.20
2017-07-26T06:37:42.155Z,2.10
2017-07-26T06:40:10.028Z,1.67
2017-07-26T06:42:37.584Z,1.63
2017-07-26T06:45:05.129Z,1.77
2017-07-26T06:47:33.165Z,2.00
2017-07-26T06:50:01.488Z,1.63
2017-07-26T06:52:29.036Z,1.87
2017-07-26T06:54:56.606Z,1.70
2017-07-26T06:57:24.157Z,1.40
2017-07-26T06:59:51.706Z,1.80
2017-07-26T07:02:19.300Z,2.10
2017-07-26T07:04:46.845Z,2.20
2017-07-26T07:07:14.389Z,2.13
2017-07-26T07:09:42.731Z,2.20
2017-07-26T07:12:10.258Z,2.10
2017-07-26T07:14:37.863Z,2.17
2017-07-26T07:17:05.714Z,1.80
2017-07-26T07:19:33.231Z,2.00
2017-07-26T07:22:00.896Z,1.80
2017-07-26T07:24:28.767Z,2.00
2017-07-26T07:26:56.327Z,1.90
2017-07-26T07:29:23.878Z,1.80
2017-07-26T07:31:51.778Z,2.03
2017-07-26T07:34:19.390Z,1.63
2017-07-26T07:36:46.946Z,1.30
2017-07-26T07:39:14.879Z,1.50
2017-07-26T07:41:42.475Z,1.53
2017-07-26T07:44:10.183Z,2.03
2017-07-26T07:46:38.021Z,1.87
2017-07-26T07:49:05.573Z,1.40
2017-07-26T07:51:33.940Z,1.40
2017-07-26T07:54:02.606Z,1.80
2017-07-26T07:56:30.162Z,1.50
2017-07-26T07:58:57.697Z,1.50
2017-07-26T08:01:25.599Z,1.50
2017-07-26T08:03:53.182Z,1.70
2017-07-26T08:06:20.709Z,3.50
2017-07-26T08:08:48.666Z,2.20
2017-07-26T08:11:16.221Z,1.40
2017-07-26T08:13:43.768Z,1.50
2017-07-26T08:16:11.587Z,1.50
2017-07-26T08:18:39.119Z,1.50
2017-07-26T08:21:06.736Z,1.70
2017-07-26T08:23:34.656Z,1.90
2017-07-26T08:26:02.249Z,1.73
2017-07-26T08:28:30.559Z,1.83
2017-07-26T08:30:58.531Z,2.20
2017-07-26T08:33:26.069Z,1.57
2017-07-26T08:35:53.626Z,1.70
2017-07-26T08:38:21.569Z,1.50
2017-07-26T08:40:49.109Z,1.20
2017-07-26T08:43:16.653Z,1.33
2017-07-26T08:45:44.509Z,1.60
2017-07-26T08:48:12.065Z,1.30
2017-07-26T08:50:39.623Z,1.00
2017-07-26T08:53:07.537Z,1.30
2017-07-26T08:55:35.111Z,1.10
2017-07-26T08:58:02.630Z,0.97
2017-07-26T09:00:30.483Z,1.00
2017-07-26T09:02:58.021Z,1.10
2017-07-26T09:05:26.387Z,1.30
2017-07-26T09:07:54.342Z,1.10
2017-07-26T09:10:21.889Z,1.00
2017-07-26T09:12:49.446Z,1.17
2017-07-26T09:15:17.326Z,1.17
2017-07-26T09:17:44.843Z,1.20
2017-07-26T09:20:12.366Z,1.30
2017-07-26T09:22:41.012Z,1.20
2017-07-26T09:25:08.580Z,1.10
2017-07-26T09:27:36.110Z,1.53
2017-07-26T09:30:04.022Z,1.20
2017-07-26T09:32:31.584Z,1.20
2017-07-26T09:34:59.133Z,1.60
2017-07-26T09:37:26.984Z,1.37
2017-07-26T09:39:54.506Z,1.27
2017-07-26T09:42:22.081Z,1.20
2017-07-26T09:44:50.617Z,1.23
2017-07-26T09:47:18.173Z,1.30
2017-07-26T09:49:45.727Z,1.00
2017-07-26T09:52:13.585Z,1.13
2017-07-26T09:54:41.144Z,1.27
2017-07-26T09:57:08.692Z,1.90
2017-07-26T09:59:36.598Z,1.20
2017-07-26T10:02:04.220Z,1.60
2017-07-26T10:04:31.761Z,1.90
2017-07-26T10:06:59.673Z,2.37
2017-07-26T10:09:27.212Z,2.67
2017-07-26T10:11:54.805Z,2.50
2017-07-26T10:14:22.780Z,2.87
2017-07-26T10:16:51.095Z,2.40
2017-07-26T10:19:18.659Z,2.70
2017-07-26T10:21:46.566Z,2.30
2017-07-26T10:24:14.185Z,2.80
2017-07-26T10:26:41.733Z,2.40
2017-07-26T10:29:09.663Z,3.00
2017-07-26T10:31:37.200Z,3.70
2017-07-26T10:34:04.765Z,3.73
2017-07-26T10:36:32.689Z,3.53
2017-07-26T10:39:00.255Z,3.90
2017-07-26T10:41:27.785Z,3.77
2017-07-26T10:43:56.461Z,4.30
2017-07-26T10:46:24.047Z,4.63
2017-07-26T10:48:53.108Z,4.77
2017-07-26T10:51:20.996Z,4.70
2017-07-26T10:53:48.555Z,6.10
2017-07-26T10:56:16.119Z,6.50
2017-07-26T10:58:43.936Z,6.40
2017-07-26T11:01:11.500Z,6.70
2017-07-26T11:03:39.336Z,6.40
2017-07-26T11:06:07.165Z,7.40
2017-07-26T11:08:34.706Z,6.37
2017-07-26T11:11:02.245Z,6.50
2017-07-26T11:13:30.086Z,7.83
2017-07-26T11:15:58.389Z,8.57
2017-07-26T11:18:25.950Z,7.90
2017-07-26T11:20:53.514Z,7.50
2017-07-26T11:23:21.070Z,7.50
2017-07-26T11:25:48.591Z,7.70
2017-07-26T11:28:16.380Z,8.17
2017-07-26T11:30:43.942Z,7.87
2017-07-26T11:33:11.519Z,7.43
2017-07-26T11:35:39.481Z,8.70
2017-07-26T11:38:07.063Z,8.63
2017-07-26T11:40:34.630Z,8.03
2017-07-26T11:43:02.542Z,9.40
2017-07-26T11:45:30.105Z,7.40
2017-07-26T11:47:57.641Z,9.10
2017-07-26T11:50:25.522Z,9.37
2017-07-26T11:52:53.840Z,10.00
2017-07-26T11:55:21.395Z,9.50
2017-07-26T11:57:49.732Z,9.33
2017-07-26T12:00:17.253Z,9.43
2017-07-26T12:02:44.810Z,8.70
2017-07-26T12:05:12.777Z,7.77
2017-07-26T12:07:40.365Z,8.70
2017-07-26T12:10:07.932Z,8.17
2017-07-26T12:12:35.773Z,9.07
2017-07-26T12:15:03.297Z,8.40
2017-07-26T12:17:31.580Z,9.00
2017-07-26T12:20:00.269Z,7.37
2017-07-26T12:22:28.559Z,6.53
2017-07-26T12:24:56.120Z,7.00
2017-07-26T12:27:24.054Z,6.10
2017-07-26T12:29:51.609Z,5.70
2017-07-26T12:32:19.169Z,5.87
2017-07-26T12:34:47.037Z,6.10
2017-07-26T12:37:14.572Z,5.93
2017-07-26T12:39:42.142Z,5.40
2017-07-26T12:42:10.022Z,4.77
2017-07-26T12:44:37.552Z,4.53
2017-07-26T12:47:05.088Z,3.63
2017-07-26T12:49:33.006Z,4.47
2017-07-26T12:52:00.579Z,4.37
2017-07-26T12:54:28.118Z,2.83
2017-07-26T12:56:56.063Z,3.57
2017-07-26T12:59:23.608Z,2.60
2017-07-26T13:01:51.152Z,2.37
2017-07-26T13:04:19.745Z,2.23
2017-07-26T13:06:50.890Z,1.53
2017-07-26T13:09:18.448Z,1.30
2017-07-26T13:11:46.763Z,1.40
2017-07-26T13:14:14.311Z,1.63
2017-07-26T13:16:41.854Z,1.40
2017-07-26T13:19:09.794Z,1.67
2017-07-26T13:21:37.364Z,1.30
2017-07-26T13:24:04.905Z,1.57
2017-07-26T13:26:32.872Z,1.30
2017-07-26T13:29:00.419Z,1.33
2017-07-26T13:31:27.983Z,1.23
2017-07-26T13:33:55.863Z,1.40
2017-07-26T13:36:23.409Z,1.40
2017-07-26T13:38:50.935Z,1.10
2017-07-26T13:41:18.819Z,1.40
2017-07-26T13:43:46.367Z,1.50
2017-07-26T13:46:13.948Z,1.33
2017-07-26T13:48:41.834Z,1.50
2017-07-26T13:51:09.360Z,1.80
2017-07-26T13:53:36.938Z,1.60
2017-07-26T13:56:04.830Z,1.20
2017-07-26T13:58:32.384Z,1.43
2017-07-26T14:01:00.698Z,1.70
2017-07-26T14:03:29.131Z,1.80
2017-07-26T14:05:56.676Z,1.70
2017-07-26T14:08:24.237Z,1.87
2017-07-26T14:10:52.105Z,1.60
2017-07-26T14:13:19.651Z,1.80
2017-07-26T14:15:47.211Z,1.90
2017-07-26T14:18:15.141Z,1.83
2017-07-26T14:20:42.718Z,1.90
2017-07-26T14:23:10.245Z,2.20
2017-07-26T14:25:37.816Z,1.90
2017-07-26T14:28:05.349Z,2.87
2017-07-26T14:30:33.239Z,2.07
2017-07-26T14:33:00.779Z,2.20
2017-07-26T14:35:28.316Z,2.67
2017-07-26T14:37:55.880Z,2.20
2017-07-26T14:40:23.406Z,2.50
2017-07-26T14:42:52.089Z,2.40
2017-07-26T14:45:19.617Z,2.20
2017-07-26T14:47:47.150Z,2.30
2017-07-26T14:50:14.703Z,2.37
2017-07-26T14:52:42.236Z,2.93
2017-07-26T14:55:10.079Z,3.43
2017-07-26T14:57:37.617Z,2.90
2017-07-26T15:00:05.156Z,2.77
2017-07-26T15:02:32.718Z,2.50
2017-07-26T15:05:00.263Z,3.27
2017-07-26T15:07:28.189Z,3.43
2017-07-26T15:09:55.792Z,2.80
2017-07-26T15:12:23.380Z,2.53
2017-07-26T15:14:50.944Z,2.90
2017-07-26T15:17:18.467Z,2.80
2017-07-26T15:19:46.417Z,2.90
2017-07-26T15:22:13.953Z,3.13
2017-07-26T15:24:41.492Z,3.07
2017-07-26T15:27:09.078Z,2.77
2017-07-26T15:29:36.643Z,2.87
2017-07-26T15:32:05.287Z,2.70
2017-07-26T15:34:32.816Z,2.30
2017-07-26T15:37:00.336Z,2.80
2017-07-26T15:39:27.911Z,2.53
2017-07-26T15:41:56.224Z,2.93
2017-07-26T15:44:24.129Z,2.90
2017-07-26T15:46:51.675Z,2.97
2017-07-26T15:49:19.218Z,2.87
2017-07-26T15:51:46.801Z,3.27
2017-07-26T15:54:14.384Z,2.63
2017-07-26T15:56:42.239Z,3.30
2017-07-26T15:59:09.774Z,3.60
2017-07-26T16:01:37.298Z,2.77
2017-07-26T16:04:05.675Z,3.43
2017-07-26T16:06:33.240Z,4.70
2017-07-26T16:09:01.834Z,4.00
2017-07-26T16:11:30.135Z,3.87
2017-07-26T16:13:57.684Z,4.60
2017-07-26T16:16:25.247Z,3.87
2017-07-26T16:18:52.790Z,3.93
2017-07-26T16:21:21.418Z,4.50
2017-07-26T16:23:48.933Z,3.83
2017-07-26T16:26:16.491Z,5.47
2017-07-26T16:28:44.875Z,5.27
2017-07-26T16:31:12.430Z,4.13
2017-07-26T16:33:41.126Z,4.93
2017-07-26T16:36:08.677Z,4.67
2017-07-26T16:38:36.990Z,4.77
2017-07-26T16:41:04.558Z,5.50
2017-07-26T16:43:32.093Z,5.60
2017-07-26T16:45:59.916Z,5.43
2017-07-26T16:48:27.456Z,6.17
2017-07-26T16:50:55.043Z,6.20
2017-07-26T16:53:22.624Z,6.27
2017-07-26T16:55:50.932Z,6.20
2017-07-26T16:58:18.844Z,6.10
2017-07-26T17:00:46.397Z,7.10
2017-07-26T17:03:13.969Z,6.77
2017-07-26T17:05:41.622Z,7.57
2017-07-26T17:08:09.180Z,7.17
2017-07-26T17:10:37.044Z,8.57
2017-07-26T17:13:06.505Z,6.60
2017-07-26T17:15:34.045Z,7.80
2017-07-26T17:18:01.630Z,8.87
2017-07-26T17:20:29.184Z,7.10
2017-07-26T17:22:57.114Z,6.50
2017-07-26T17:25:24.708Z,6.70
2017-07-26T17:27:52.266Z,7.43
2017-07-26T17:30:19.881Z,8.60
2017-07-26T17:32:47.410Z,8.97
2017-07-26T17:35:15.364Z,9.00
2017-07-26T17:37:42.911Z,8.83
2017-07-26T17:40:11.235Z,8.70
2017-07-26T17:42:38.811Z,8.90
2017-07-26T17:45:06.355Z,8.87
2017-07-26T17:47:34.355Z,9.40
2017-07-26T17:50:01.949Z,9.13
2017-07-26T17:52:29.575Z,10.00
2017-07-26T17:54:57.151Z,9.10
2017-07-26T17:57:24.777Z,9.17
2017-07-26T17:59:52.728Z,9.60
2017-07-26T18:02:20.325Z,9.97
2017-07-26T18:04:47.890Z,9.77
2017-07-26T18:07:17.373Z,10.60
2017-07-26T18:09:45.072Z,9.37
2017-07-26T18:12:12.997Z,9.70
2017-07-26T18:14:40.592Z,10.23
2017-07-26T18:17:08.142Z,9.50
2017-07-26T18:19:35.797Z,10.93
2017-07-26T18:22:03.357Z,7.90
2017-07-26T18:24:31.263Z,8.00
2017-07-26T18:27:00.204Z,9.20
2017-07-26T18:29:27.802Z,9.57
2017-07-26T18:31:56.278Z,9.50
2017-07-26T18:34:23.854Z,8.20
2017-07-26T18:36:51.818Z,8.47
2017-07-26T18:39:19.401Z,9.87
2017-07-26T18:41:46.989Z,11.30
2017-07-26T18:44:14.608Z,10.43
2017-07-26T18:46:42.185Z,11.27
2017-07-26T18:49:10.037Z,13.77
2017-07-26T18:51:38.717Z,11.87
2017-07-26T18:54:06.274Z,11.10
2017-07-26T18:56:33.876Z,12.43
2017-07-26T18:59:01.465Z,13.20
2017-07-26T19:01:29.493Z,13.73
2017-07-26T19:03:57.067Z,14.50
2017-07-26T19:06:24.624Z,14.20
2017-07-26T19:08:52.251Z,13.93
2017-07-26T19:11:19.837Z,14.60
2017-07-26T19:13:48.536Z,14.87
2017-07-26T19:16:16.118Z,14.83
2017-07-26T19:18:43.774Z,14.10
2017-07-26T19:21:11.496Z,13.03
2017-07-26T19:23:39.059Z,14.10
2017-07-26T19:26:07.718Z,13.20
2017-07-26T19:28:35.306Z,13.87
2017-07-26T19:31:02.884Z,14.03
2017-07-26T19:33:30.545Z,15.33
2017-07-26T19:35:58.146Z,13.17
2017-07-26T19:38:26.037Z,14.67
2017-07-26T19:40:53.614Z,13.80
2017-07-26T19:43:21.209Z,14.10
2017-07-26T19:45:48.875Z,14.70
2017-07-26T19:48:16.409Z,13.90
2017-07-26T19:50:44.402Z,14.87
2017-07-26T19:53:12.038Z,14.00
2017-07-26T19:55:39.666Z,14.80
2017-07-26T19:58:07.354Z,14.47
2017-07-26T20:00:35.112Z,15.00
2017-07-26T20:03:03.177Z,14.17
2017-07-26T20:05:30.840Z,13.40
2017-07-26T20:07:58.512Z,13.00
2017-07-26T20:10:26.207Z,13.50
2017-07-26T20:12:53.852Z,13.97
2017-07-26T20:15:22.614Z,13.43
2017-07-26T20:17:50.235Z,13.90
2017-07-26T20:20:17.810Z,14.63
2017-07-26T20:22:45.490Z,16.10
2017-07-26T20:25:13.067Z,15.13
2017-07-26T20:27:41.002Z,14.47
2017-07-26T20:30:08.618Z,15.23
2017-07-26T20:32:36.819Z,15.17
2017-07-26T20:35:04.487Z,15.63
2017-07-26T20:37:32.217Z,16.80
2017-07-26T20:40:00.145Z,15.40
2017-07-26T20:42:27.741Z,13.70
2017-07-26T20:44:55.351Z,16.17
2017-07-26T20:47:22.971Z,14.70
2017-07-26T20:49:50.749Z,15.10
2017-07-26T20:52:18.706Z,15.97
2017-07-26T20:54:46.263Z,15.33
2017-07-26T20:57:14.735Z,16.03
2017-07-26T20:59:42.367Z,16.77
2017-07-26T21:02:09.941Z,17.17
2017-07-26T21:04:37.871Z,16.30
2017-07-26T21:07:05.484Z,15.40
2017-07-26T21:09:34.205Z,16.33
2017-07-26T21:12:01.842Z,15.60
2017-07-26T21:14:29.816Z,15.33
2017-07-26T21:16:57.714Z,14.03
2017-07-26T21:19:25.321Z,14.17
2017-07-26T21:21:53.932Z,15.17
2017-07-26T21:24:21.573Z,15.53
2017-07-26T21:26:49.201Z,15.97
2017-07-26T21:29:17.147Z,13.90
2017-07-26T21:31:44.770Z,14.20
2017-07-26T21:34:12.433Z,15.80
2017-07-26T21:36:40.051Z,13.27
2017-07-26T21:39:07.630Z,14.73
2017-07-26T21:41:35.572Z,14.10
2017-07-26T21:44:03.225Z,15.20
2017-07-26T21:46:31.594Z,13.90
2017-07-26T21:48:59.234Z,12.90
2017-07-26T21:51:26.844Z,12.47
2017-07-26T21:53:54.802Z,14.27
2017-07-26T21:56:23.443Z,13.93
2017-07-26T21:58:51.139Z,13.67
2017-07-26T22:01:19.528Z,13.03
2017-07-26T22:03:47.908Z,15.33
2017-07-26T22:06:16.698Z,13.87
2017-07-26T22:08:44.332Z,12.93
2017-07-26T22:11:11.985Z,13.80
2017-07-26T22:13:39.624Z,15.60
2017-07-26T22:16:07.199Z,14.20
2017-07-26T22:18:35.178Z,14.60
2017-07-26T22:21:03.576Z,15.07
2017-07-26T22:23:33.315Z,16.20
2017-07-26T22:26:01.022Z,18.10
2017-07-26T22:28:28.641Z,17.40
2017-07-26T22:30:56.598Z,16.97
2017-07-26T22:33:24.896Z,17.63
2017-07-26T22:35:52.491Z,17.10
2017-07-26T22:38:20.136Z,16.70
2017-07-26T22:40:47.732Z,18.70
2017-07-26T22:43:15.729Z,17.00
2017-07-26T22:45:44.066Z,17.10
2017-07-26T22:48:12.504Z,20.60
2017-07-26T22:50:40.168Z,19.00
2017-07-26T22:53:07.805Z,20.03
2017-07-26T22:55:35.710Z,21.33
2017-07-26T22:58:03.349Z,18.37
2017-07-26T23:00:30.945Z,19.30
2017-07-26T23:02:59.429Z,20.37
2017-07-26T23:05:27.031Z,20.57
2017-07-26T23:07:55.003Z,21.03
2017-07-26T23:10:23.444Z,22.53
2017-07-26T23:12:51.064Z,22.53
2017-07-26T23:15:19.419Z,23.47
2017-07-26T23:17:47.001Z,26.80
2017-07-26T23:20:14.929Z,25.83
2017-07-26T23:22:42.509Z,25.30
2017-07-26T23:25:13.163Z,26.97
2017-07-26T23:27:40.740Z,28.13
2017-07-26T23:30:09.115Z,27.33
2017-07-26T23:32:40.239Z,26.67
2017-07-26T23:35:08.055Z,26.87
2017-07-26T23:37:35.684Z,27.90
2017-07-26T23:40:04.148Z,28.20
2017-07-26T23:42:31.710Z,29.00
2017-07-26T23:44:59.579Z,29.10
2017-07-26T23:47:27.973Z,31.40
2017-07-26T23:49:56.347Z,30.30
2017-07-26T23:52:24.717Z,30.77
2017-07-26T23:54:53.121Z,30.53
2017-07-26T23:57:21.000Z,33.00
2017-07-26T23:59:49.326Z,34.77
